Decoded Metar for OMSJ (SHARJAH in UNITED ARAB EMIRATES) (IATA:SHJ) | Meteo·Mobile Aviation Weather
aviador You're here:

OMSJ Decoded Metar

SHARJAH in UNITED ARAB EMIRATES
Report Time2018-10-23 22:00:00
UTC Time2018-10-23 22:13:00
Flight Rules vfr VFR
Wind240° at 09 kt
W.Decomp.*RWY 30: 4.4 kt HW 7.9 kt LCW
W.Rank240° ranks 30
Current wind is above 240° avg. (6.2)
Visibility9999 m
Phenomena:N/A
Clouds:N/A
Expected CloudBase > 3,600 ft AGL from Temp-Dew spread
CeilingNone
Temp31°C (ISA +16)
Dew Point22°C (59% RH)
Heat Index34.6°C
QNH1012 hPa
Density Alt2,343 ft
Elevation108 ft
Report Wrong Elevation
Raw Report
OMSJ 232200Z 24009KT CAVOK 31/22 Q1012=

Extra information for OMSJ:More info

Metar Taf Metar & Taf Last 4 Metars F.Rules Stats Wind Profile Meteogram Temp Stats Airport Information Weather charts Add Link Nearby VenuesMetar ALERT Operation Metar Decoded Social comments